sensor_id;sensor_type;location;lat;lon;timestamp;temperature;humidity
28087;DHT22;15392;48.912;8.380;2023-12-29T00:02:40;15.40;55.90
28087;DHT22;15392;48.912;8.380;2023-12-29T00:05:26;15.40;55.80
28087;DHT22;15392;48.912;8.380;2023-12-29T00:08:13;15.40;56.20
28087;DHT22;15392;48.912;8.380;2023-12-29T00:10:59;15.50;56.10
28087;DHT22;15392;48.912;8.380;2023-12-29T00:13:45;15.50;56.00
28087;DHT22;15392;48.912;8.380;2023-12-29T00:16:32;15.50;56.10
28087;DHT22;15392;48.912;8.380;2023-12-29T00:19:18;15.50;56.10
28087;DHT22;15392;48.912;8.380;2023-12-29T00:22:04;15.50;56.20
28087;DHT22;15392;48.912;8.380;2023-12-29T00:24:50;15.50;56.20
28087;DHT22;15392;48.912;8.380;2023-12-29T00:27:36;15.50;56.10
28087;DHT22;15392;48.912;8.380;2023-12-29T00:30:22;15.50;56.30
28087;DHT22;15392;48.912;8.380;2023-12-29T00:33:08;15.50;56.30
28087;DHT22;15392;48.912;8.380;2023-12-29T00:35:58;15.50;56.40
28087;DHT22;15392;48.912;8.380;2023-12-29T00:38:44;15.50;56.50
28087;DHT22;15392;48.912;8.380;2023-12-29T00:41:31;15.40;56.40
28087;DHT22;15392;48.912;8.380;2023-12-29T00:44:17;15.40;56.30
28087;DHT22;15392;48.912;8.380;2023-12-29T00:47:03;15.40;56.20
28087;DHT22;15392;48.912;8.380;2023-12-29T00:49:49;15.40;56.00
28087;DHT22;15392;48.912;8.380;2023-12-29T00:52:35;15.30;56.10
28087;DHT22;15392;48.912;8.380;2023-12-29T00:55:22;15.30;56.20
28087;DHT22;15392;48.912;8.380;2023-12-29T00:58:08;15.30;56.20
28087;DHT22;15392;48.912;8.380;2023-12-29T01:00:54;15.30;56.10
28087;DHT22;15392;48.912;8.380;2023-12-29T01:03:40;15.40;56.70
28087;DHT22;15392;48.912;8.380;2023-12-29T01:06:26;15.30;56.00
28087;DHT22;15392;48.912;8.380;2023-12-29T01:09:12;15.30;56.10
28087;DHT22;15392;48.912;8.380;2023-12-29T01:11:58;15.30;56.20
28087;DHT22;15392;48.912;8.380;2023-12-29T01:14:44;15.30;56.00
28087;DHT22;15392;48.912;8.380;2023-12-29T01:17:30;15.30;56.10
28087;DHT22;15392;48.912;8.380;2023-12-29T01:20:16;15.30;56.30
28087;DHT22;15392;48.912;8.380;2023-12-29T01:23:02;15.30;56.20
28087;DHT22;15392;48.912;8.380;2023-12-29T01:25:48;15.30;56.10
28087;DHT22;15392;48.912;8.380;2023-12-29T01:28:34;15.30;56.00
28087;DHT22;15392;48.912;8.380;2023-12-29T01:31:20;15.20;55.90
28087;DHT22;15392;48.912;8.380;2023-12-29T01:34:06;15.20;55.90
28087;DHT22;15392;48.912;8.380;2023-12-29T01:36:52;15.20;56.00
28087;DHT22;15392;48.912;8.380;2023-12-29T01:39:38;15.20;56.10
28087;DHT22;15392;48.912;8.380;2023-12-29T01:42:25;15.20;56.10
28087;DHT22;15392;48.912;8.380;2023-12-29T01:45:21;15.20;56.20
28087;DHT22;15392;48.912;8.380;2023-12-29T01:48:08;15.20;56.10
28087;DHT22;15392;48.912;8.380;2023-12-29T01:50:55;15.20;56.20
28087;DHT22;15392;48.912;8.380;2023-12-29T01:53:41;15.20;56.10
28087;DHT22;15392;48.912;8.380;2023-12-29T01:56:27;15.20;56.10
28087;DHT22;15392;48.912;8.380;2023-12-29T01:59:13;15.20;56.10
28087;DHT22;15392;48.912;8.380;2023-12-29T02:01:59;15.20;56.10
28087;DHT22;15392;48.912;8.380;2023-12-29T02:04:47;15.20;56.00
28087;DHT22;15392;48.912;8.380;2023-12-29T02:07:33;15.20;56.10
28087;DHT22;15392;48.912;8.380;2023-12-29T02:10:20;15.20;56.10
28087;DHT22;15392;48.912;8.380;2023-12-29T02:13:07;15.20;56.00
28087;DHT22;15392;48.912;8.380;2023-12-29T02:15:55;15.10;56.10
28087;DHT22;15392;48.912;8.380;2023-12-29T02:18:53;15.10;56.20
28087;DHT22;15392;48.912;8.380;2023-12-29T02:21:41;15.10;56.20
28087;DHT22;15392;48.912;8.380;2023-12-29T02:24:27;15.20;56.20
28087;DHT22;15392;48.912;8.380;2023-12-29T02:27:43;15.10;56.30
28087;DHT22;15392;48.912;8.380;2023-12-29T02:30:43;15.10;56.20
28087;DHT22;15392;48.912;8.380;2023-12-29T02:33:38;15.10;56.20
28087;DHT22;15392;48.912;8.380;2023-12-29T02:36:29;15.10;56.20
28087;DHT22;15392;48.912;8.380;2023-12-29T02:39:16;15.10;56.20
28087;DHT22;15392;48.912;8.380;2023-12-29T02:42:02;15.10;56.30
28087;DHT22;15392;48.912;8.380;2023-12-29T02:44:49;15.10;56.00
28087;DHT22;15392;48.912;8.380;2023-12-29T02:47:35;15.10;56.40
28087;DHT22;15392;48.912;8.380;2023-12-29T02:50:21;15.10;56.60
28087;DHT22;15392;48.912;8.380;2023-12-29T02:53:07;15.10;56.50
28087;DHT22;15392;48.912;8.380;2023-12-29T02:55:54;15.10;56.60
28087;DHT22;15392;48.912;8.380;2023-12-29T02:58:40;15.10;56.50
28087;DHT22;15392;48.912;8.380;2023-12-29T03:01:26;15.10;56.60
28087;DHT22;15392;48.912;8.380;2023-12-29T03:04:14;15.10;56.70
28087;DHT22;15392;48.912;8.380;2023-12-29T03:07:00;15.10;56.80
28087;DHT22;15392;48.912;8.380;2023-12-29T03:09:46;15.10;56.90
28087;DHT22;15392;48.912;8.380;2023-12-29T03:12:33;15.20;56.90
28087;DHT22;15392;48.912;8.380;2023-12-29T03:15:19;15.20;56.90
28087;DHT22;15392;48.912;8.380;2023-12-29T03:18:05;15.20;56.90
28087;DHT22;15392;48.912;8.380;2023-12-29T03:20:51;15.20;56.90
28087;DHT22;15392;48.912;8.380;2023-12-29T03:23:37;15.20;56.80
28087;DHT22;15392;48.912;8.380;2023-12-29T03:26:23;15.20;56.70
28087;DHT22;15392;48.912;8.380;2023-12-29T03:29:10;15.20;56.60
28087;DHT22;15392;48.912;8.380;2023-12-29T03:31:57;15.30;56.70
28087;DHT22;15392;48.912;8.380;2023-12-29T03:34:43;15.30;56.70
28087;DHT22;15392;48.912;8.380;2023-12-29T03:37:29;15.30;56.50
28087;DHT22;15392;48.912;8.380;2023-12-29T03:40:15;15.30;56.60
28087;DHT22;15392;48.912;8.380;2023-12-29T03:43:04;15.30;56.50
28087;DHT22;15392;48.912;8.380;2023-12-29T03:45:50;15.30;56.60
28087;DHT22;15392;48.912;8.380;2023-12-29T03:48:36;15.30;56.70
28087;DHT22;15392;48.912;8.380;2023-12-29T03:51:22;15.20;56.70
28087;DHT22;15392;48.912;8.380;2023-12-29T03:54:08;15.30;56.90
28087;DHT22;15392;48.912;8.380;2023-12-29T03:56:54;15.20;56.80
28087;DHT22;15392;48.912;8.380;2023-12-29T03:59:40;15.20;56.80
28087;DHT22;15392;48.912;8.380;2023-12-29T04:02:26;15.20;56.80
28087;DHT22;15392;48.912;8.380;2023-12-29T04:05:13;15.20;56.90
28087;DHT22;15392;48.912;8.380;2023-12-29T04:07:59;15.20;56.90
28087;DHT22;15392;48.912;8.380;2023-12-29T04:10:45;15.20;56.80
28087;DHT22;15392;48.912;8.380;2023-12-29T04:13:31;15.20;56.90
28087;DHT22;15392;48.912;8.380;2023-12-29T04:16:20;15.20;56.90
28087;DHT22;15392;48.912;8.380;2023-12-29T04:19:06;15.20;56.80
28087;DHT22;15392;48.912;8.380;2023-12-29T04:21:52;15.20;56.80
28087;DHT22;15392;48.912;8.380;2023-12-29T04:24:38;15.20;56.80
28087;DHT22;15392;48.912;8.380;2023-12-29T04:27:25;15.20;56.80
28087;DHT22;15392;48.912;8.380;2023-12-29T04:30:11;15.20;56.90
28087;DHT22;15392;48.912;8.380;2023-12-29T04:32:57;15.20;56.90
28087;DHT22;15392;48.912;8.380;2023-12-29T04:35:43;15.30;56.90
28087;DHT22;15392;48.912;8.380;2023-12-29T04:38:29;15.30;56.80
28087;DHT22;15392;48.912;8.380;2023-12-29T04:41:15;15.30;56.80
28087;DHT22;15392;48.912;8.380;2023-12-29T04:44:01;15.30;56.80
28087;DHT22;15392;48.912;8.380;2023-12-29T04:46:47;15.30;56.80
28087;DHT22;15392;48.912;8.380;2023-12-29T04:49:33;15.30;56.80
28087;DHT22;15392;48.912;8.380;2023-12-29T04:52:19;15.30;56.70
28087;DHT22;15392;48.912;8.380;2023-12-29T04:55:05;15.30;56.80
28087;DHT22;15392;48.912;8.380;2023-12-29T04:57:52;15.30;56.90
28087;DHT22;15392;48.912;8.380;2023-12-29T05:00:38;15.30;56.90
28087;DHT22;15392;48.912;8.380;2023-12-29T05:03:24;15.30;56.90
28087;DHT22;15392;48.912;8.380;2023-12-29T05:06:10;15.30;56.90
28087;DHT22;15392;48.912;8.380;2023-12-29T05:08:56;15.30;57.00
28087;DHT22;15392;48.912;8.380;2023-12-29T05:11:43;15.30;57.00
28087;DHT22;15392;48.912;8.380;2023-12-29T05:14:29;15.30;57.10
28087;DHT22;15392;48.912;8.380;2023-12-29T05:17:15;15.30;57.10
28087;DHT22;15392;48.912;8.380;2023-12-29T05:20:01;15.20;57.00
28087;DHT22;15392;48.912;8.380;2023-12-29T05:22:47;15.30;57.10
28087;DHT22;15392;48.912;8.380;2023-12-29T05:25:33;15.20;57.10
28087;DHT22;15392;48.912;8.380;2023-12-29T05:28:19;15.20;57.10
28087;DHT22;15392;48.912;8.380;2023-12-29T05:31:05;15.20;57.10
28087;DHT22;15392;48.912;8.380;2023-12-29T05:33:51;15.20;57.10
28087;DHT22;15392;48.912;8.380;2023-12-29T05:36:38;15.20;57.10
28087;DHT22;15392;48.912;8.380;2023-12-29T05:39:24;15.20;57.10
28087;DHT22;15392;48.912;8.380;2023-12-29T05:42:10;15.20;57.10
28087;DHT22;15392;48.912;8.380;2023-12-29T05:44:56;15.20;57.10
28087;DHT22;15392;48.912;8.380;2023-12-29T05:47:42;15.20;57.20
28087;DHT22;15392;48.912;8.380;2023-12-29T05:50:28;15.10;57.20
28087;DHT22;15392;48.912;8.380;2023-12-29T05:53:14;15.20;57.20
28087;DHT22;15392;48.912;8.380;2023-12-29T05:56:01;15.20;57.30
28087;DHT22;15392;48.912;8.380;2023-12-29T05:58:47;15.20;57.30
28087;DHT22;15392;48.912;8.380;2023-12-29T06:01:33;15.10;57.30
28087;DHT22;15392;48.912;8.380;2023-12-29T06:04:19;15.10;57.20
28087;DHT22;15392;48.912;8.380;2023-12-29T06:07:05;15.10;57.20
28087;DHT22;15392;48.912;8.380;2023-12-29T06:09:51;15.10;57.30
28087;DHT22;15392;48.912;8.380;2023-12-29T06:12:37;15.10;57.20
28087;DHT22;15392;48.912;8.380;2023-12-29T06:15:23;15.10;57.30
28087;DHT22;15392;48.912;8.380;2023-12-29T06:18:09;15.10;57.30
28087;DHT22;15392;48.912;8.380;2023-12-29T06:20:55;15.10;57.40
28087;DHT22;15392;48.912;8.380;2023-12-29T06:23:41;15.10;57.40
28087;DHT22;15392;48.912;8.380;2023-12-29T06:26:28;15.10;57.30
28087;DHT22;15392;48.912;8.380;2023-12-29T06:29:14;15.10;57.40
28087;DHT22;15392;48.912;8.380;2023-12-29T06:32:00;15.10;57.40
28087;DHT22;15392;48.912;8.380;2023-12-29T06:34:46;15.10;57.40
28087;DHT22;15392;48.912;8.380;2023-12-29T06:37:32;15.10;57.40
28087;DHT22;15392;48.912;8.380;2023-12-29T06:40:18;15.10;57.40
28087;DHT22;15392;48.912;8.380;2023-12-29T06:43:04;15.10;57.40
28087;DHT22;15392;48.912;8.380;2023-12-29T06:45:50;15.10;57.40
28087;DHT22;15392;48.912;8.380;2023-12-29T06:48:37;15.10;57.40
28087;DHT22;15392;48.912;8.380;2023-12-29T06:51:23;15.10;57.40
28087;DHT22;15392;48.912;8.380;2023-12-29T06:54:09;15.10;57.40
28087;DHT22;15392;48.912;8.380;2023-12-29T06:56:55;15.10;57.40
28087;DHT22;15392;48.912;8.380;2023-12-29T06:59:41;15.10;57.40
28087;DHT22;15392;48.912;8.380;2023-12-29T07:02:27;15.10;57.40
28087;DHT22;15392;48.912;8.380;2023-12-29T07:05:15;15.10;57.40
28087;DHT22;15392;48.912;8.380;2023-12-29T07:08:01;15.10;57.40
28087;DHT22;15392;48.912;8.380;2023-12-29T07:10:48;15.10;57.40
28087;DHT22;15392;48.912;8.380;2023-12-29T07:13:36;15.10;57.40
28087;DHT22;15392;48.912;8.380;2023-12-29T07:16:22;15.10;57.40
28087;DHT22;15392;48.912;8.380;2023-12-29T07:19:08;15.10;57.40
28087;DHT22;15392;48.912;8.380;2023-12-29T07:21:54;15.10;57.40
28087;DHT22;15392;48.912;8.380;2023-12-29T07:24:40;15.10;57.40
28087;DHT22;15392;48.912;8.380;2023-12-29T07:27:27;15.10;57.40
28087;DHT22;15392;48.912;8.380;2023-12-29T07:30:13;15.10;57.40
28087;DHT22;15392;48.912;8.380;2023-12-29T07:32:59;15.10;57.50
28087;DHT22;15392;48.912;8.380;2023-12-29T07:35:48;15.10;57.50
28087;DHT22;15392;48.912;8.380;2023-12-29T07:38:34;15.10;57.50
28087;DHT22;15392;48.912;8.380;2023-12-29T07:41:22;15.10;57.40
28087;DHT22;15392;48.912;8.380;2023-12-29T07:44:12;15.10;57.40
28087;DHT22;15392;48.912;8.380;2023-12-29T07:46:58;15.10;57.40
28087;DHT22;15392;48.912;8.380;2023-12-29T07:49:44;15.20;57.40
28087;DHT22;15392;48.912;8.380;2023-12-29T07:52:30;15.10;57.40
28087;DHT22;15392;48.912;8.380;2023-12-29T07:55:16;15.10;57.40
28087;DHT22;15392;48.912;8.380;2023-12-29T07:58:02;15.10;57.40
28087;DHT22;15392;48.912;8.380;2023-12-29T08:00:49;15.10;57.40
28087;DHT22;15392;48.912;8.380;2023-12-29T08:03:36;15.10;57.40
28087;DHT22;15392;48.912;8.380;2023-12-29T08:06:22;15.10;57.40
28087;DHT22;15392;48.912;8.380;2023-12-29T08:09:08;15.10;57.40
28087;DHT22;15392;48.912;8.380;2023-12-29T08:11:57;15.20;57.40
28087;DHT22;15392;48.912;8.380;2023-12-29T08:14:43;15.10;57.40
28087;DHT22;15392;48.912;8.380;2023-12-29T08:17:29;15.10;57.40
28087;DHT22;15392;48.912;8.380;2023-12-29T08:20:16;15.20;57.50
28087;DHT22;15392;48.912;8.380;2023-12-29T08:23:02;15.10;57.40
28087;DHT22;15392;48.912;8.380;2023-12-29T08:25:49;15.20;57.40
28087;DHT22;15392;48.912;8.380;2023-12-29T08:28:35;15.20;57.50
28087;DHT22;15392;48.912;8.380;2023-12-29T08:31:21;15.20;57.50
28087;DHT22;15392;48.912;8.380;2023-12-29T08:34:12;15.20;57.50
28087;DHT22;15392;48.912;8.380;2023-12-29T08:36:58;15.20;57.50
28087;DHT22;15392;48.912;8.380;2023-12-29T08:39:44;15.20;57.50
28087;DHT22;15392;48.912;8.380;2023-12-29T08:42:30;15.20;57.50
28087;DHT22;15392;48.912;8.380;2023-12-29T08:45:16;15.20;57.50
28087;DHT22;15392;48.912;8.380;2023-12-29T08:48:02;15.30;57.50
28087;DHT22;15392;48.912;8.380;2023-12-29T08:50:49;15.30;57.50
28087;DHT22;15392;48.912;8.380;2023-12-29T08:53:35;15.30;57.50
28087;DHT22;15392;48.912;8.380;2023-12-29T08:56:21;15.30;57.50
28087;DHT22;15392;48.912;8.380;2023-12-29T08:59:07;15.30;57.50
28087;DHT22;15392;48.912;8.380;2023-12-29T09:01:53;15.30;58.10
28087;DHT22;15392;48.912;8.380;2023-12-29T09:04:39;15.30;57.50
28087;DHT22;15392;48.912;8.380;2023-12-29T09:07:25;15.40;57.50
28087;DHT22;15392;48.912;8.380;2023-12-29T09:10:13;15.40;57.60
28087;DHT22;15392;48.912;8.380;2023-12-29T09:13:00;15.40;57.50
28087;DHT22;15392;48.912;8.380;2023-12-29T09:15:46;15.40;57.50
28087;DHT22;15392;48.912;8.380;2023-12-29T09:18:32;15.50;57.60
28087;DHT22;15392;48.912;8.380;2023-12-29T09:21:18;15.50;57.60
28087;DHT22;15392;48.912;8.380;2023-12-29T09:24:04;15.50;57.50
28087;DHT22;15392;48.912;8.380;2023-12-29T09:26:50;15.60;57.40
28087;DHT22;15392;48.912;8.380;2023-12-29T09:29:38;15.60;57.40
28087;DHT22;15392;48.912;8.380;2023-12-29T09:32:24;15.60;57.30
28087;DHT22;15392;48.912;8.380;2023-12-29T09:35:10;15.60;57.30
28087;DHT22;15392;48.912;8.380;2023-12-29T09:37:57;15.70;57.60
28087;DHT22;15392;48.912;8.380;2023-12-29T09:40:44;15.90;58.30
28087;DHT22;15392;48.912;8.380;2023-12-29T09:43:31;16.10;58.50
28087;DHT22;15392;48.912;8.380;2023-12-29T09:46:20;16.40;58.60
28087;DHT22;15392;48.912;8.380;2023-12-29T09:49:08;16.80;58.30
28087;DHT22;15392;48.912;8.380;2023-12-29T09:51:55;17.10;57.90
28087;DHT22;15392;48.912;8.380;2023-12-29T09:54:46;17.40;57.90
28087;DHT22;15392;48.912;8.380;2023-12-29T09:57:33;17.80;57.60
28087;DHT22;15392;48.912;8.380;2023-12-29T10:00:20;18.20;56.70
28087;DHT22;15392;48.912;8.380;2023-12-29T10:03:08;18.50;55.50
28087;DHT22;15392;48.912;8.380;2023-12-29T10:05:56;18.70;55.10
28087;DHT22;15392;48.912;8.380;2023-12-29T10:08:47;18.80;54.60
28087;DHT22;15392;48.912;8.380;2023-12-29T10:11:35;18.90;54.30
28087;DHT22;15392;48.912;8.380;2023-12-29T10:14:26;19.00;53.90
28087;DHT22;15392;48.912;8.380;2023-12-29T10:17:51;19.00;54.20
28087;DHT22;15392;48.912;8.380;2023-12-29T10:23:57;18.80;52.30
28087;DHT22;15392;48.912;8.380;2023-12-29T10:26:47;18.80;52.70
28087;DHT22;15392;48.912;8.380;2023-12-29T10:29:33;18.60;53.00
28087;DHT22;15392;48.912;8.380;2023-12-29T10:32:20;18.50;52.70
28087;DHT22;15392;48.912;8.380;2023-12-29T10:35:10;18.40;52.80
28087;DHT22;15392;48.912;8.380;2023-12-29T10:38:10;18.30;52.80
28087;DHT22;15392;48.912;8.380;2023-12-29T10:41:13;18.30;52.90
28087;DHT22;15392;48.912;8.380;2023-12-29T10:44:06;18.20;52.50
28087;DHT22;15392;48.912;8.380;2023-12-29T10:46:53;18.20;53.10
28087;DHT22;15392;48.912;8.380;2023-12-29T10:49:40;18.10;53.50
28087;DHT22;15392;48.912;8.380;2023-12-29T10:52:26;18.10;53.40
28087;DHT22;15392;48.912;8.380;2023-12-29T10:55:12;18.10;53.20
28087;DHT22;15392;48.912;8.380;2023-12-29T10:58:00;18.10;52.80
28087;DHT22;15392;48.912;8.380;2023-12-29T11:00:46;18.10;53.50
28087;DHT22;15392;48.912;8.380;2023-12-29T11:03:32;18.00;52.50
28087;DHT22;15392;48.912;8.380;2023-12-29T11:06:19;18.00;53.40
28087;DHT22;15392;48.912;8.380;2023-12-29T11:09:05;17.90;53.00
28087;DHT22;15392;48.912;8.380;2023-12-29T11:12:03;17.90;52.90
28087;DHT22;15392;48.912;8.380;2023-12-29T11:15:13;17.90;52.50
28087;DHT22;15392;48.912;8.380;2023-12-29T11:18:00;17.90;53.30
28087;DHT22;15392;48.912;8.380;2023-12-29T11:20:47;17.90;53.00
28087;DHT22;15392;48.912;8.380;2023-12-29T11:23:33;17.80;52.50
28087;DHT22;15392;48.912;8.380;2023-12-29T11:26:19;17.80;52.90
28087;DHT22;15392;48.912;8.380;2023-12-29T11:29:08;17.80;53.40
28087;DHT22;15392;48.912;8.380;2023-12-29T11:31:56;17.70;52.90
28087;DHT22;15392;48.912;8.380;2023-12-29T11:34:51;17.70;53.20
28087;DHT22;15392;48.912;8.380;2023-12-29T11:38:01;17.70;53.30
28087;DHT22;15392;48.912;8.380;2023-12-29T11:43:57;17.60;53.30
28087;DHT22;15392;48.912;8.380;2023-12-29T11:46:46;17.60;53.00
28087;DHT22;15392;48.912;8.380;2023-12-29T11:49:58;17.60;53.60
28087;DHT22;15392;48.912;8.380;2023-12-29T11:52:46;17.50;53.40
28087;DHT22;15392;48.912;8.380;2023-12-29T11:55:39;17.50;53.90
28087;DHT22;15392;48.912;8.380;2023-12-29T11:58:26;17.50;54.10
28087;DHT22;15392;48.912;8.380;2023-12-29T12:01:55;17.50;54.10
28087;DHT22;15392;48.912;8.380;2023-12-29T12:04:43;17.50;53.90
28087;DHT22;15392;48.912;8.380;2023-12-29T12:13:09;17.50;54.80
28087;DHT22;15392;48.912;8.380;2023-12-29T12:15:55;17.50;54.30
28087;DHT22;15392;48.912;8.380;2023-12-29T12:18:41;17.50;54.80
28087;DHT22;15392;48.912;8.380;2023-12-29T12:21:28;17.50;54.70
28087;DHT22;15392;48.912;8.380;2023-12-29T12:24:15;17.50;54.70
28087;DHT22;15392;48.912;8.380;2023-12-29T12:27:10;17.50;54.30
28087;DHT22;15392;48.912;8.380;2023-12-29T12:29:59;17.50;54.20
28087;DHT22;15392;48.912;8.380;2023-12-29T12:32:46;17.50;54.50
28087;DHT22;15392;48.912;8.380;2023-12-29T12:35:42;17.50;54.30
28087;DHT22;15392;48.912;8.380;2023-12-29T12:38:30;17.50;54.40
28087;DHT22;15392;48.912;8.380;2023-12-29T12:41:20;17.40;54.60
28087;DHT22;15392;48.912;8.380;2023-12-29T12:44:14;17.40;54.50
28087;DHT22;15392;48.912;8.380;2023-12-29T12:47:07;17.40;54.40
28087;DHT22;15392;48.912;8.380;2023-12-29T12:49:55;17.40;54.00
28087;DHT22;15392;48.912;8.380;2023-12-29T12:52:42;17.40;54.50
28087;DHT22;15392;48.912;8.380;2023-12-29T12:55:32;17.30;54.30
28087;DHT22;15392;48.912;8.380;2023-12-29T12:58:20;17.30;54.20
28087;DHT22;15392;48.912;8.380;2023-12-29T13:01:07;17.30;53.90
28087;DHT22;15392;48.912;8.380;2023-12-29T13:03:54;17.30;54.60
28087;DHT22;15392;48.912;8.380;2023-12-29T13:06:43;17.30;54.60
28087;DHT22;15392;48.912;8.380;2023-12-29T13:09:32;17.30;54.60
28087;DHT22;15392;48.912;8.380;2023-12-29T13:12:18;17.30;54.70
28087;DHT22;15392;48.912;8.380;2023-12-29T13:15:11;17.20;54.70
28087;DHT22;15392;48.912;8.380;2023-12-29T13:17:57;17.20;54.40
28087;DHT22;15392;48.912;8.380;2023-12-29T13:20:52;17.20;54.30
28087;DHT22;15392;48.912;8.380;2023-12-29T13:23:41;17.20;54.30
28087;DHT22;15392;48.912;8.380;2023-12-29T13:26:34;17.20;54.00
28087;DHT22;15392;48.912;8.380;2023-12-29T13:29:25;17.20;53.90
28087;DHT22;15392;48.912;8.380;2023-12-29T13:32:26;17.20;53.80
28087;DHT22;15392;48.912;8.380;2023-12-29T13:35:33;17.20;52.40
28087;DHT22;15392;48.912;8.380;2023-12-29T13:38:25;17.20;53.40
28087;DHT22;15392;48.912;8.380;2023-12-29T13:41:16;17.20;52.80
28087;DHT22;15392;48.912;8.380;2023-12-29T13:44:04;17.10;53.50
28087;DHT22;15392;48.912;8.380;2023-12-29T13:46:51;17.10;53.70
28087;DHT22;15392;48.912;8.380;2023-12-29T13:49:37;17.20;53.10
28087;DHT22;15392;48.912;8.380;2023-12-29T13:52:24;17.10;53.10
28087;DHT22;15392;48.912;8.380;2023-12-29T13:55:12;17.20;52.80
28087;DHT22;15392;48.912;8.380;2023-12-29T13:58:10;17.10;52.20
28087;DHT22;15392;48.912;8.380;2023-12-29T14:00:58;17.10;52.70
28087;DHT22;15392;48.912;8.380;2023-12-29T14:04:07;17.10;52.90
28087;DHT22;15392;48.912;8.380;2023-12-29T14:06:59;17.10;52.20
28087;DHT22;15392;48.912;8.380;2023-12-29T14:09:47;17.10;52.10
28087;DHT22;15392;48.912;8.380;2023-12-29T14:12:33;17.10;52.40
28087;DHT22;15392;48.912;8.380;2023-12-29T14:15:19;17.10;51.90
28087;DHT22;15392;48.912;8.380;2023-12-29T14:20:59;17.10;51.60
28087;DHT22;15392;48.912;8.380;2023-12-29T14:29:41;17.00;52.10
28087;DHT22;15392;48.912;8.380;2023-12-29T14:32:27;17.00;52.20
28087;DHT22;15392;48.912;8.380;2023-12-29T14:35:15;17.00;51.80
28087;DHT22;15392;48.912;8.380;2023-12-29T14:38:02;17.00;52.80
28087;DHT22;15392;48.912;8.380;2023-12-29T14:40:48;17.00;52.50
28087;DHT22;15392;48.912;8.380;2023-12-29T14:43:34;17.00;52.70
28087;DHT22;15392;48.912;8.380;2023-12-29T14:46:20;17.00;52.80
28087;DHT22;15392;48.912;8.380;2023-12-29T14:49:06;16.90;52.70
28087;DHT22;15392;48.912;8.380;2023-12-29T14:51:52;17.00;52.80
28087;DHT22;15392;48.912;8.380;2023-12-29T14:54:39;16.90;53.00
28087;DHT22;15392;48.912;8.380;2023-12-29T14:57:26;16.90;52.80
28087;DHT22;15392;48.912;8.380;2023-12-29T15:00:13;16.90;52.60
28087;DHT22;15392;48.912;8.380;2023-12-29T15:03:00;16.90;52.50
28087;DHT22;15392;48.912;8.380;2023-12-29T15:05:46;16.90;52.80
28087;DHT22;15392;48.912;8.380;2023-12-29T15:08:33;16.90;52.90
28087;DHT22;15392;48.912;8.380;2023-12-29T15:11:22;16.80;52.30
28087;DHT22;15392;48.912;8.380;2023-12-29T15:14:08;16.80;52.30
28087;DHT22;15392;48.912;8.380;2023-12-29T15:16:54;16.80;52.50
28087;DHT22;15392;48.912;8.380;2023-12-29T15:19:41;16.80;52.80
28087;DHT22;15392;48.912;8.380;2023-12-29T15:22:27;16.80;52.10
28087;DHT22;15392;48.912;8.380;2023-12-29T15:25:13;16.80;52.60
28087;DHT22;15392;48.912;8.380;2023-12-29T15:27:59;16.70;51.40
28087;DHT22;15392;48.912;8.380;2023-12-29T15:30:45;16.70;52.30
28087;DHT22;15392;48.912;8.380;2023-12-29T15:33:31;16.70;52.20
28087;DHT22;15392;48.912;8.380;2023-12-29T15:36:18;16.60;52.50
28087;DHT22;15392;48.912;8.380;2023-12-29T15:39:08;16.60;52.00
28087;DHT22;15392;48.912;8.380;2023-12-29T15:41:54;16.60;52.10
28087;DHT22;15392;48.912;8.380;2023-12-29T15:44:40;16.60;52.40
28087;DHT22;15392;48.912;8.380;2023-12-29T15:47:27;16.60;52.70
28087;DHT22;15392;48.912;8.380;2023-12-29T15:50:13;16.60;52.30
28087;DHT22;15392;48.912;8.380;2023-12-29T15:52:59;16.60;51.40
28087;DHT22;15392;48.912;8.380;2023-12-29T15:55:45;16.50;51.80
28087;DHT22;15392;48.912;8.380;2023-12-29T15:58:31;16.50;51.90
28087;DHT22;15392;48.912;8.380;2023-12-29T16:01:22;16.50;52.00
28087;DHT22;15392;48.912;8.380;2023-12-29T16:04:11;16.50;51.50
28087;DHT22;15392;48.912;8.380;2023-12-29T16:06:57;16.50;51.50
28087;DHT22;15392;48.912;8.380;2023-12-29T16:09:43;16.50;51.40
28087;DHT22;15392;48.912;8.380;2023-12-29T16:12:29;16.50;52.00
28087;DHT22;15392;48.912;8.380;2023-12-29T16:15:15;16.40;52.30
28087;DHT22;15392;48.912;8.380;2023-12-29T16:18:01;16.40;52.30
28087;DHT22;15392;48.912;8.380;2023-12-29T16:20:47;16.40;51.60
28087;DHT22;15392;48.912;8.380;2023-12-29T16:23:33;16.40;50.50
28087;DHT22;15392;48.912;8.380;2023-12-29T16:26:19;16.40;51.10
28087;DHT22;15392;48.912;8.380;2023-12-29T16:29:05;16.40;51.20
28087;DHT22;15392;48.912;8.380;2023-12-29T16:31:52;16.40;50.60
28087;DHT22;15392;48.912;8.380;2023-12-29T16:34:37;16.30;50.90
28087;DHT22;15392;48.912;8.380;2023-12-29T16:37:25;16.30;51.70
28087;DHT22;15392;48.912;8.380;2023-12-29T16:40:12;16.30;51.60
28087;DHT22;15392;48.912;8.380;2023-12-29T16:43:01;16.30;50.60
28087;DHT22;15392;48.912;8.380;2023-12-29T16:45:47;16.30;51.70
28087;DHT22;15392;48.912;8.380;2023-12-29T16:48:33;16.30;51.80
28087;DHT22;15392;48.912;8.380;2023-12-29T16:51:19;16.30;50.90
28087;DHT22;15392;48.912;8.380;2023-12-29T16:54:05;16.30;50.90
28087;DHT22;15392;48.912;8.380;2023-12-29T16:56:52;16.30;50.80
28087;DHT22;15392;48.912;8.380;2023-12-29T16:59:38;16.30;50.90
28087;DHT22;15392;48.912;8.380;2023-12-29T17:02:24;16.30;50.80
28087;DHT22;15392;48.912;8.380;2023-12-29T17:05:11;16.20;51.50
28087;DHT22;15392;48.912;8.380;2023-12-29T17:07:57;16.20;51.30
28087;DHT22;15392;48.912;8.380;2023-12-29T17:10:43;16.20;51.60
28087;DHT22;15392;48.912;8.380;2023-12-29T17:13:29;16.20;51.20
28087;DHT22;15392;48.912;8.380;2023-12-29T17:16:16;16.20;51.10
28087;DHT22;15392;48.912;8.380;2023-12-29T17:19:06;16.20;51.50
28087;DHT22;15392;48.912;8.380;2023-12-29T17:21:52;16.20;51.20
28087;DHT22;15392;48.912;8.380;2023-12-29T17:24:38;16.10;51.10
28087;DHT22;15392;48.912;8.380;2023-12-29T17:27:24;16.10;51.60
28087;DHT22;15392;48.912;8.380;2023-12-29T17:30:10;16.10;51.50
28087;DHT22;15392;48.912;8.380;2023-12-29T17:32:57;16.10;51.40
28087;DHT22;15392;48.912;8.380;2023-12-29T17:35:46;16.10;51.50
28087;DHT22;15392;48.912;8.380;2023-12-29T17:38:32;16.10;51.10
28087;DHT22;15392;48.912;8.380;2023-12-29T17:41:18;16.10;51.20
28087;DHT22;15392;48.912;8.380;2023-12-29T17:44:07;16.10;51.50
28087;DHT22;15392;48.912;8.380;2023-12-29T17:46:53;16.10;51.80
28087;DHT22;15392;48.912;8.380;2023-12-29T17:49:41;16.10;51.70
28087;DHT22;15392;48.912;8.380;2023-12-29T17:52:28;16.00;51.80
28087;DHT22;15392;48.912;8.380;2023-12-29T17:55:14;16.00;51.60
28087;DHT22;15392;48.912;8.380;2023-12-29T17:58:00;16.00;52.10
28087;DHT22;15392;48.912;8.380;2023-12-29T18:00:46;16.00;51.80